sensor_id;sensor_type;location;lat;lon;timestamp;pressure;altitude;pressure_sealevel;temperature;humidity
42727;BME280;28372;56.832;60.658;2023-08-12T00:00:04;98623.66;;;17.33;53.96
42727;BME280;28372;56.832;60.658;2023-08-12T00:02:43;98618.19;;;17.33;54.14
42727;BME280;28372;56.832;60.658;2023-08-12T00:05:12;98620.94;;;17.29;54.86
42727;BME280;28372;56.832;60.658;2023-08-12T00:07:40;98619.34;;;17.28;54.80
42727;BME280;28372;56.832;60.658;2023-08-12T00:10:11;98633.44;;;17.30;54.75
42727;BME280;28372;56.832;60.658;2023-08-12T00:12:39;98626.03;;;17.27;55.34
42727;BME280;28372;56.832;60.658;2023-08-12T00:15:08;98633.44;;;17.26;55.78
42727;BME280;28372;56.832;60.658;2023-08-12T00:17:38;98624.06;;;17.24;55.21
42727;BME280;28372;56.832;60.658;2023-08-12T00:20:10;98644.75;;;17.25;55.72
42727;BME280;28372;56.832;60.658;2023-08-12T00:22:39;98636.19;;;17.23;55.81
42727;BME280;28372;56.832;60.658;2023-08-12T00:25:08;98635.41;;;17.19;55.83
42727;BME280;28372;56.832;60.658;2023-08-12T00:27:36;98635.41;;;17.19;56.06
42727;BME280;28372;56.832;60.658;2023-08-12T00:30:05;98634.63;;;17.18;56.24
42727;BME280;28372;56.832;60.658;2023-08-12T00:32:36;98631.88;;;17.18;56.29
42727;BME280;28372;56.832;60.658;2023-08-12T00:35:04;98636.97;;;17.16;56.37
42727;BME280;28372;56.832;60.658;2023-08-12T00:37:32;98634.25;;;17.16;56.29
42727;BME280;28372;56.832;60.658;2023-08-12T00:40:00;98639.72;;;17.12;56.47
42727;BME280;28372;56.832;60.658;2023-08-12T00:42:30;98621.41;;;17.02;56.92
42727;BME280;28372;56.832;60.658;2023-08-12T00:44:58;98638.94;;;17.12;56.89
42727;BME280;28372;56.832;60.658;2023-08-12T00:47:31;98640.50;;;17.13;56.47
42727;BME280;28372;56.832;60.658;2023-08-12T00:49:59;98636.59;;;17.07;56.62
42727;BME280;28372;56.832;60.658;2023-08-12T00:52:30;98637.38;;;17.11;56.61
42727;BME280;28372;56.832;60.658;2023-08-12T00:54:58;98645.97;;;17.09;56.55
42727;BME280;28372;56.832;60.658;2023-08-12T00:57:26;98645.97;;;17.09;56.43
42727;BME280;28372;56.832;60.658;2023-08-12T00:59:55;98648.72;;;17.13;56.87
42727;BME280;28372;56.832;60.658;2023-08-12T01:02:23;98647.16;;;17.05;56.46
42727;BME280;28372;56.832;60.658;2023-08-12T01:04:52;98665.09;;;17.09;56.36
42727;BME280;28372;56.832;60.658;2023-08-12T01:07:20;98653.00;;;17.10;56.61
42727;BME280;28372;56.832;60.658;2023-08-12T01:09:48;98654.19;;;17.06;56.38
42727;BME280;28372;56.832;60.658;2023-08-12T01:12:26;98661.16;;;17.28;57.96
42727;BME280;28372;56.832;60.658;2023-08-12T01:14:58;98657.69;;;17.13;56.30
42727;BME280;28372;56.832;60.658;2023-08-12T01:17:31;98663.91;;;17.18;56.75
42727;BME280;28372;56.832;60.658;2023-08-12T01:20:02;98661.97;;;17.15;56.52
42727;BME280;28372;56.832;60.658;2023-08-12T01:22:37;98662.34;;;17.20;56.46
42727;BME280;28372;56.832;60.658;2023-08-12T01:25:09;98655.31;;;17.19;56.09
42727;BME280;28372;56.832;60.658;2023-08-12T01:27:37;98661.56;;;17.23;55.89
42727;BME280;28372;56.832;60.658;2023-08-12T01:30:06;98663.91;;;17.28;56.25
42727;BME280;28372;56.832;60.658;2023-08-12T01:35:25;98656.78;;;17.49;57.26
42727;BME280;28372;56.832;60.658;2023-08-12T01:37:54;98653.72;;;17.40;55.93
42727;BME280;28372;56.832;60.658;2023-08-12T01:40:25;98664.66;;;17.40;55.46
42727;BME280;28372;56.832;60.658;2023-08-12T01:42:55;98660.34;;;17.39;54.88
42727;BME280;28372;56.832;60.658;2023-08-12T01:45:23;98662.69;;;17.44;55.43
42727;BME280;28372;56.832;60.658;2023-08-12T01:47:51;98660.31;;;17.46;54.89
42727;BME280;28372;56.832;60.658;2023-08-12T01:50:21;98651.72;;;17.47;54.88
42727;BME280;28372;56.832;60.658;2023-08-12T01:52:49;98664.59;;;17.54;54.75
42727;BME280;28372;56.832;60.658;2023-08-12T01:55:17;98661.84;;;17.58;54.59
42727;BME280;28372;56.832;60.658;2023-08-12T01:57:46;98668.84;;;17.62;54.38
42727;BME280;28372;56.832;60.658;2023-08-12T02:00:14;98669.22;;;17.68;54.63
42727;BME280;28372;56.832;60.658;2023-08-12T02:02:44;98673.50;;;17.73;54.25
42727;BME280;28372;56.832;60.658;2023-08-12T02:05:15;98673.09;;;17.78;53.83
42727;BME280;28372;56.832;60.658;2023-08-12T02:07:43;98669.16;;;17.83;53.62
42727;BME280;28372;56.832;60.658;2023-08-12T02:10:11;98670.69;;;17.87;53.00
42727;BME280;28372;56.832;60.658;2023-08-12T02:12:38;98669.53;;;17.95;53.33
42727;BME280;28372;56.832;60.658;2023-08-12T02:15:06;98671.06;;;18.00;52.50
42727;BME280;28372;56.832;60.658;2023-08-12T02:17:34;98676.88;;;18.06;51.93
42727;BME280;28372;56.832;60.658;2023-08-12T02:20:03;98672.53;;;18.12;51.99
42727;BME280;28372;56.832;60.658;2023-08-12T02:22:31;98674.44;;;18.19;51.37
42727;BME280;28372;56.832;60.658;2023-08-12T02:24:59;98676.78;;;18.24;51.33
42727;BME280;28372;56.832;60.658;2023-08-12T02:27:29;98679.06;;;18.32;51.10
42727;BME280;28372;56.832;60.658;2023-08-12T02:29:57;98675.84;;;18.41;50.88
42727;BME280;28372;56.832;60.658;2023-08-12T02:32:30;98680.50;;;18.48;50.06
42727;BME280;28372;56.832;60.658;2023-08-12T02:34:58;98677.69;;;18.59;49.84
42727;BME280;28372;56.832;60.658;2023-08-12T02:37:25;98680.31;;;18.70;49.10
42727;BME280;28372;56.832;60.658;2023-08-12T02:39:53;98681.00;;;18.81;49.10
42727;BME280;28372;56.832;60.658;2023-08-12T02:42:21;98680.53;;;18.93;48.69
42727;BME280;28372;56.832;60.658;2023-08-12T02:44:49;98676.06;;;19.10;48.29
42727;BME280;28372;56.832;60.658;2023-08-12T02:47:17;98684.00;;;19.74;47.29
42727;BME280;28372;56.832;60.658;2023-08-12T02:49:44;98683.53;;;20.88;45.60
42727;BME280;28372;56.832;60.658;2023-08-12T02:52:12;98686.91;;;22.00;43.88
42727;BME280;28372;56.832;60.658;2023-08-12T02:54:40;98681.78;;;23.01;41.55
42727;BME280;28372;56.832;60.658;2023-08-12T02:57:07;98671.81;;;23.91;39.95
42727;BME280;28372;56.832;60.658;2023-08-12T02:59:36;98691.16;;;24.82;37.68
42727;BME280;28372;56.832;60.658;2023-08-12T03:02:04;98688.16;;;25.68;35.94
42727;BME280;28372;56.832;60.658;2023-08-12T03:04:31;98695.38;;;26.28;35.26
42727;BME280;28372;56.832;60.658;2023-08-12T03:06:59;98688.66;;;26.98;33.64
42727;BME280;28372;56.832;60.658;2023-08-12T03:09:27;98696.97;;;27.63;32.20
42727;BME280;28372;56.832;60.658;2023-08-12T03:11:55;98705.31;;;28.24;31.37
42727;BME280;28372;56.832;60.658;2023-08-12T03:14:23;98700.94;;;28.90;29.95
42727;BME280;28372;56.832;60.658;2023-08-12T03:16:50;98702.16;;;29.52;28.93
42727;BME280;28372;56.832;60.658;2023-08-12T03:19:18;98701.69;;;30.14;27.45
42727;BME280;28372;56.832;60.658;2023-08-12T03:21:46;98707.44;;;30.61;26.26
42727;BME280;28372;56.832;60.658;2023-08-12T03:24:14;98707.25;;;31.05;25.70
42727;BME280;28372;56.832;60.658;2023-08-12T03:26:42;98708.25;;;31.49;24.39
42727;BME280;28372;56.832;60.658;2023-08-12T03:29:09;98701.06;;;31.95;23.60
42727;BME280;28372;56.832;60.658;2023-08-12T03:31:42;98697.09;;;32.45;22.40
42727;BME280;28372;56.832;60.658;2023-08-12T03:34:10;98701.44;;;32.95;22.06
42727;BME280;28372;56.832;60.658;2023-08-12T03:36:40;98693.94;;;33.29;21.99
42727;BME280;28372;56.832;60.658;2023-08-12T03:39:09;98700.09;;;33.68;20.98
42727;BME280;28372;56.832;60.658;2023-08-12T03:41:37;98691.69;;;34.19;20.37
42727;BME280;28372;56.832;60.658;2023-08-12T03:44:06;98712.84;;;34.42;19.61
42727;BME280;28372;56.832;60.658;2023-08-12T03:46:34;98694.94;;;34.62;19.27
42727;BME280;28372;56.832;60.658;2023-08-12T03:49:02;98703.28;;;34.91;19.35
42727;BME280;28372;56.832;60.658;2023-08-12T03:51:30;98698.53;;;35.22;19.06
42727;BME280;28372;56.832;60.658;2023-08-12T03:53:58;98702.69;;;35.57;18.37
42727;BME280;28372;56.832;60.658;2023-08-12T03:56:28;98698.88;;;35.90;17.77
42727;BME280;28372;56.832;60.658;2023-08-12T03:58:56;98696.97;;;36.29;17.37
42727;BME280;28372;56.832;60.658;2023-08-12T04:01:23;98700.47;;;36.41;17.33
42727;BME280;28372;56.832;60.658;2023-08-12T04:03:51;98684.75;;;36.70;17.20
42727;BME280;28372;56.832;60.658;2023-08-12T04:06:19;98694.88;;;37.03;16.97
42727;BME280;28372;56.832;60.658;2023-08-12T04:08:47;98698.00;;;37.19;16.68
42727;BME280;28372;56.832;60.658;2023-08-12T04:11:15;98707.81;;;37.50;16.51
42727;BME280;28372;56.832;60.658;2023-08-12T04:13:43;98692.91;;;37.69;16.31
42727;BME280;28372;56.832;60.658;2023-08-12T04:16:12;98692.44;;;37.84;15.33
42727;BME280;28372;56.832;60.658;2023-08-12T04:18:41;98698.47;;;38.20;15.54
42727;BME280;28372;56.832;60.658;2023-08-12T04:21:10;98697.53;;;38.45;15.66
42727;BME280;28372;56.832;60.658;2023-08-12T04:23:38;98696.03;;;38.70;15.29
42727;BME280;28372;56.832;60.658;2023-08-12T04:26:07;98697.19;;;38.88;14.73
42727;BME280;28372;56.832;60.658;2023-08-12T04:28:34;98703.88;;;39.12;14.72
42727;BME280;28372;56.832;60.658;2023-08-12T04:31:06;98705.22;;;39.11;14.79
42727;BME280;28372;56.832;60.658;2023-08-12T04:33:40;98693.34;;;39.47;14.81
42727;BME280;28372;56.832;60.658;2023-08-12T04:36:08;98697.00;;;39.69;14.39
42727;BME280;28372;56.832;60.658;2023-08-12T04:38:37;98701.41;;;39.78;14.50
42727;BME280;28372;56.832;60.658;2023-08-12T04:41:08;98696.47;;;39.99;13.91
42727;BME280;28372;56.832;60.658;2023-08-12T04:43:37;98701.13;;;40.10;14.09
42727;BME280;28372;56.832;60.658;2023-08-12T04:46:05;98702.94;;;40.29;13.77
42727;BME280;28372;56.832;60.658;2023-08-12T04:48:34;98689.41;;;40.42;13.82
42727;BME280;28372;56.832;60.658;2023-08-12T04:51:02;98690.72;;;40.63;13.77
42727;BME280;28372;56.832;60.658;2023-08-12T04:53:30;98693.63;;;40.86;13.27
42727;BME280;28372;56.832;60.658;2023-08-12T04:55:58;98696.19;;;41.05;13.20
42727;BME280;28372;56.832;60.658;2023-08-12T04:58:26;98695.47;;;41.12;13.34
42727;BME280;28372;56.832;60.658;2023-08-12T05:00:54;98692.84;;;41.22;12.98
42727;BME280;28372;56.832;60.658;2023-08-12T05:03:22;98699.28;;;41.30;12.95
42727;BME280;28372;56.832;60.658;2023-08-12T05:05:52;98693.84;;;41.40;13.05
42727;BME280;28372;56.832;60.658;2023-08-12T05:08:25;98686.09;;;41.56;12.84
42727;BME280;28372;56.832;60.658;2023-08-12T05:10:53;98684.41;;;41.76;12.86
42727;BME280;28372;56.832;60.658;2023-08-12T05:13:21;98685.97;;;41.85;12.59
42727;BME280;28372;56.832;60.658;2023-08-12T05:15:51;98681.22;;;41.95;12.60
42727;BME280;28372;56.832;60.658;2023-08-12T05:18:22;98684.44;;;41.99;12.10
42727;BME280;28372;56.832;60.658;2023-08-12T05:20:51;98676.28;;;42.19;12.44
42727;BME280;28372;56.832;60.658;2023-08-12T05:23:22;98681.75;;;42.17;12.51
42727;BME280;28372;56.832;60.658;2023-08-12T05:25:51;98676.66;;;42.00;12.41
42727;BME280;28372;56.832;60.658;2023-08-12T05:28:21;98680.84;;;42.22;12.29
42727;BME280;28372;56.832;60.658;2023-08-12T05:30:49;98673.03;;;42.38;12.41
42727;BME280;28372;56.832;60.658;2023-08-12T05:33:17;98675.25;;;42.55;12.70
42727;BME280;28372;56.832;60.658;2023-08-12T05:35:47;98667.84;;;42.67;11.58
42727;BME280;28372;56.832;60.658;2023-08-12T05:38:15;98663.28;;;42.64;11.72
42727;BME280;28372;56.832;60.658;2023-08-12T05:40:43;98678.06;;;42.70;11.99
42727;BME280;28372;56.832;60.658;2023-08-12T05:43:10;98668.41;;;42.66;11.59
42727;BME280;28372;56.832;60.658;2023-08-12T05:45:38;98665.69;;;42.83;11.62
42727;BME280;28372;56.832;60.658;2023-08-12T05:48:06;98664.38;;;42.76;11.41
42727;BME280;28372;56.832;60.658;2023-08-12T05:50:34;98666.00;;;42.95;11.82
42727;BME280;28372;56.832;60.658;2023-08-12T05:53:01;98662.41;;;42.94;11.92
42727;BME280;28372;56.832;60.658;2023-08-12T05:55:29;98664.25;;;43.07;11.32
42727;BME280;28372;56.832;60.658;2023-08-12T05:57:57;98659.81;;;43.22;11.46
42727;BME280;28372;56.832;60.658;2023-08-12T06:00:25;98662.19;;;43.33;11.72
42727;BME280;28372;56.832;60.658;2023-08-12T06:02:52;98658.09;;;43.26;11.57
42727;BME280;28372;56.832;60.658;2023-08-12T06:05:20;98653.59;;;43.41;12.07
42727;BME280;28372;56.832;60.658;2023-08-12T06:07:48;98646.03;;;43.69;11.37
42727;BME280;28372;56.832;60.658;2023-08-12T06:10:16;98645.47;;;43.62;11.13
42727;BME280;28372;56.832;60.658;2023-08-12T06:12:45;98644.25;;;43.73;11.33
42727;BME280;28372;56.832;60.658;2023-08-12T06:15:12;98640.78;;;43.83;11.39
42727;BME280;28372;56.832;60.658;2023-08-12T06:17:40;98632.97;;;43.83;11.13
42727;BME280;28372;56.832;60.658;2023-08-12T06:20:08;98649.25;;;43.90;11.31
42727;BME280;28372;56.832;60.658;2023-08-12T06:22:36;98639.13;;;43.97;11.09
42727;BME280;28372;56.832;60.658;2023-08-12T06:25:04;98633.34;;;44.22;11.64
42727;BME280;28372;56.832;60.658;2023-08-12T06:27:32;98643.94;;;44.29;11.19
42727;BME280;28372;56.832;60.658;2023-08-12T06:30:00;98633.47;;;44.32;11.06
42727;BME280;28372;56.832;60.658;2023-08-12T06:32:33;98639.31;;;44.34;11.24
42727;BME280;28372;56.832;60.658;2023-08-12T06:35:01;98626.91;;;44.39;10.99
42727;BME280;28372;56.832;60.658;2023-08-12T06:37:29;98639.31;;;44.52;10.54
42727;BME280;28372;56.832;60.658;2023-08-12T06:39:57;98627.47;;;44.73;10.62
42727;BME280;28372;56.832;60.658;2023-08-12T06:42:25;98629.56;;;44.72;10.32
42727;BME280;28372;56.832;60.658;2023-08-12T06:44:58;98628.91;;;44.46;11.18
42727;BME280;28372;56.832;60.658;2023-08-12T06:47:30;98631.84;;;44.74;10.68
42727;BME280;28372;56.832;60.658;2023-08-12T06:49:57;98627.47;;;44.55;10.69
42727;BME280;28372;56.832;60.658;2023-08-12T06:52:25;98636.09;;;44.65;10.43
42727;BME280;28372;56.832;60.658;2023-08-12T06:54:53;98614.97;;;44.68;10.83
42727;BME280;28372;56.832;60.658;2023-08-12T06:57:21;98620.84;;;44.70;10.93
42727;BME280;28372;56.832;60.658;2023-08-12T06:59:49;98616.97;;;45.03;10.24
42727;BME280;28372;56.832;60.658;2023-08-12T07:02:17;98604.72;;;45.10;10.36
42727;BME280;28372;56.832;60.658;2023-08-12T07:04:44;98618.00;;;44.97;10.38
42727;BME280;28372;56.832;60.658;2023-08-12T07:07:12;98622.69;;;44.58;10.83
42727;BME280;28372;56.832;60.658;2023-08-12T07:09:40;98615.59;;;44.14;11.48
42727;BME280;28372;56.832;60.658;2023-08-12T07:12:08;98616.66;;;43.58;11.60
42727;BME280;28372;56.832;60.658;2023-08-12T07:14:36;98606.19;;;43.36;11.28
42727;BME280;28372;56.832;60.658;2023-08-12T07:17:03;98612.59;;;43.69;11.38
42727;BME280;28372;56.832;60.658;2023-08-12T07:19:31;98608.31;;;43.78;11.48
42727;BME280;28372;56.832;60.658;2023-08-12T07:21:59;98600.34;;;43.76;11.14
42727;BME280;28372;56.832;60.658;2023-08-12T07:24:27;98601.53;;;43.73;11.30
42727;BME280;28372;56.832;60.658;2023-08-12T07:26:55;98610.56;;;43.62;11.47
42727;BME280;28372;56.832;60.658;2023-08-12T07:29:22;98598.34;;;43.19;11.56
42727;BME280;28372;56.832;60.658;2023-08-12T07:31:52;98603.34;;;43.10;12.23
42727;BME280;28372;56.832;60.658;2023-08-12T07:34:19;98614.19;;;42.96;11.83
42727;BME280;28372;56.832;60.658;2023-08-12T07:36:47;98602.88;;;42.48;11.94
42727;BME280;28372;56.832;60.658;2023-08-12T07:39:15;98593.91;;;41.95;12.39
42727;BME280;28372;56.832;60.658;2023-08-12T07:41:43;98596.94;;;41.43;12.90
42727;BME280;28372;56.832;60.658;2023-08-12T07:44:10;98589.81;;;40.83;13.12
42727;BME280;28372;56.832;60.658;2023-08-12T07:46:38;98599.03;;;40.31;13.05
42727;BME280;28372;56.832;60.658;2023-08-12T07:49:06;98594.84;;;39.67;13.50
42727;BME280;28372;56.832;60.658;2023-08-12T07:51:33;98590.53;;;39.10;13.99
42727;BME280;28372;56.832;60.658;2023-08-12T07:54:01;98576.97;;;38.74;13.98
42727;BME280;28372;56.832;60.658;2023-08-12T07:56:29;98592.91;;;38.37;14.25
42727;BME280;28372;56.832;60.658;2023-08-12T07:58:57;98588.00;;;38.11;14.76
42727;BME280;28372;56.832;60.658;2023-08-12T08:01:25;98584.03;;;37.74;14.93
42727;BME280;28372;56.832;60.658;2023-08-12T08:03:52;98576.38;;;37.42;15.06
42727;BME280;28372;56.832;60.658;2023-08-12T08:06:22;98594.50;;;37.14;15.45
42727;BME280;28372;56.832;60.658;2023-08-12T08:08:51;98570.97;;;36.73;15.48
42727;BME280;28372;56.832;60.658;2023-08-12T08:11:18;98567.00;;;36.44;15.98
42727;BME280;28372;56.832;60.658;2023-08-12T08:13:46;98571.41;;;36.14;16.31
42727;BME280;28372;56.832;60.658;2023-08-12T08:16:13;98569.91;;;35.89;16.26
42727;BME280;28372;56.832;60.658;2023-08-12T08:18:41;98566.72;;;35.73;16.58
42727;BME280;28372;56.832;60.658;2023-08-12T08:21:10;98555.97;;;35.47;17.23
42727;BME280;28372;56.832;60.658;2023-08-12T08:23:40;98555.84;;;35.28;17.25
42727;BME280;28372;56.832;60.658;2023-08-12T08:26:09;98567.13;;;35.22;17.28
42727;BME280;28372;56.832;60.658;2023-08-12T08:28:37;98567.78;;;35.04;17.37
42727;BME280;28372;56.832;60.658;2023-08-12T08:31:05;98546.84;;;34.57;17.56
42727;BME280;28372;56.832;60.658;2023-08-12T08:33:33;98557.16;;;34.38;17.29
42727;BME280;28372;56.832;60.658;2023-08-12T08:36:01;98550.56;;;34.18;17.89
42727;BME280;28372;56.832;60.658;2023-08-12T08:38:28;98555.47;;;34.01;18.03
42727;BME280;28372;56.832;60.658;2023-08-12T08:40:57;98554.47;;;33.92;18.69
42727;BME280;28372;56.832;60.658;2023-08-12T08:43:26;98552.69;;;33.72;18.34
42727;BME280;28372;56.832;60.658;2023-08-12T08:45:55;98552.69;;;33.67;18.50
42727;BME280;28372;56.832;60.658;2023-08-12T08:48:23;98537.94;;;33.49;18.52
42727;BME280;28372;56.832;60.658;2023-08-12T08:50:51;98535.91;;;33.38;18.77
42727;BME280;28372;56.832;60.658;2023-08-12T08:53:20;98544.59;;;33.23;18.93
42727;BME280;28372;56.832;60.658;2023-08-12T08:55:48;98546.06;;;33.07;18.88
42727;BME280;28372;56.832;60.658;2023-08-12T08:58:16;98547.06;;;32.82;19.14
42727;BME280;28372;56.832;60.658;2023-08-12T09:00:49;98545.72;;;32.66;19.38
42727;BME280;28372;56.832;60.658;2023-08-12T09:03:17;98552.28;;;32.45;18.64
42727;BME280;28372;56.832;60.658;2023-08-12T09:05:46;98538.44;;;32.25;19.35
42727;BME280;28372;56.832;60.658;2023-08-12T09:08:15;98541.13;;;32.02;19.50
42727;BME280;28372;56.832;60.658;2023-08-12T09:10:45;98533.94;;;31.90;19.34
42727;BME280;28372;56.832;60.658;2023-08-12T09:13:13;98532.50;;;31.63;19.93
42727;BME280;28372;56.832;60.658;2023-08-12T09:15:42;98527.91;;;31.27;20.88
42727;BME280;28372;56.832;60.658;2023-08-12T09:18:10;98526.50;;;31.12;21.01
42727;BME280;28372;56.832;60.658;2023-08-12T09:20:37;98533.03;;;31.03;20.77
42727;BME280;28372;56.832;60.658;2023-08-12T09:23:05;98540.09;;;30.78;21.01
42727;BME280;28372;56.832;60.658;2023-08-12T09:25:45;98541.59;;;30.99;21.02
42727;BME280;28372;56.832;60.658;2023-08-12T09:28:13;98538.19;;;30.42;21.00
42727;BME280;28372;56.832;60.658;2023-08-12T09:30:41;98540.69;;;30.20;21.61
42727;BME280;28372;56.832;60.658;2023-08-12T09:33:09;98534.28;;;30.14;22.29
42727;BME280;28372;56.832;60.658;2023-08-12T09:35:40;98539.31;;;30.10;22.01
42727;BME280;28372;56.832;60.658;2023-08-12T09:38:11;98550.28;;;30.13;22.32
42727;BME280;28372;56.832;60.658;2023-08-12T09:40:40;98531.78;;;29.80;22.33
42727;BME280;28372;56.832;60.658;2023-08-12T09:43:09;98520.72;;;29.50;22.23
42727;BME280;28372;56.832;60.658;2023-08-12T09:45:39;98534.84;;;29.47;21.94
42727;BME280;28372;56.832;60.658;2023-08-12T09:48:09;98537.84;;;29.43;22.65
42727;BME280;28372;56.832;60.658;2023-08-12T09:50:40;98524.69;;;29.14;22.10
42727;BME280;28372;56.832;60.658;2023-08-12T09:53:09;98525.34;;;29.09;22.92
42727;BME280;28372;56.832;60.658;2023-08-12T09:55:37;98535.13;;;28.89;23.05
42727;BME280;28372;56.832;60.658;2023-08-12T09:58:06;98523.59;;;28.66;23.15
42727;BME280;28372;56.832;60.658;2023-08-12T10:00:37;98534.28;;;28.59;22.82
42727;BME280;28372;56.832;60.658;2023-08-12T10:03:05;98530.03;;;28.48;23.46
42727;BME280;28372;56.832;60.658;2023-08-12T10:05:34;98539.72;;;28.38;22.98
42727;BME280;28372;56.832;60.658;2023-08-12T10:08:02;98513.88;;;28.23;22.61
42727;BME280;28372;56.832;60.658;2023-08-12T10:10:33;98527.41;;;28.30;22.29
42727;BME280;28372;56.832;60.658;2023-08-12T10:13:02;98525.75;;;27.99;22.79
42727;BME280;28372;56.832;60.658;2023-08-12T10:15:34;98535.94;;;28.02;23.21
42727;BME280;28372;56.832;60.658;2023-08-12T10:18:05;98537.16;;;28.01;23.27
42727;BME280;28372;56.832;60.658;2023-08-12T10:20:38;98524.88;;;27.83;24.41
42727;BME280;28372;56.832;60.658;2023-08-12T10:23:07;98511.63;;;27.78;22.71
42727;BME280;28372;56.832;60.658;2023-08-12T10:25:37;98520.03;;;27.69;23.03
42727;BME280;28372;56.832;60.658;2023-08-12T10:28:05;98520.44;;;27.43;23.31
42727;BME280;28372;56.832;60.658;2023-08-12T10:30:33;98521.22;;;27.34;23.38
42727;BME280;28372;56.832;60.658;2023-08-12T10:33:02;98518.97;;;27.05;23.57
42727;BME280;28372;56.832;60.658;2023-08-12T10:35:43;98518.88;;;27.42;23.78
42727;BME280;28372;56.832;60.658;2023-08-12T10:38:19;98525.72;;;27.23;24.02
42727;BME280;28372;56.832;60.658;2023-08-12T10:40:48;98514.69;;;26.86;23.73
42727;BME280;28372;56.832;60.658;2023-08-12T10:43:15;98497.25;;;26.66;23.88
42727;BME280;28372;56.832;60.658;2023-08-12T10:45:49;98516.88;;;26.91;24.38
42727;BME280;28372;56.832;60.658;2023-08-12T10:48:24;98514.09;;;26.91;24.89
42727;BME280;28372;56.832;60.658;2023-08-12T10:50:55;98515.78;;;26.60;25.00
42727;BME280;28372;56.832;60.658;2023-08-12T10:53:25;98524.25;;;26.57;24.56
42727;BME280;28372;56.832;60.658;2023-08-12T10:55:59;98525.81;;;26.48;24.95
42727;BME280;28372;56.832;60.658;2023-08-12T10:58:29;98512.69;;;26.40;25.24
42727;BME280;28372;56.832;60.658;2023-08-12T11:00:57;98518.25;;;26.40;25.00
42727;BME280;28372;56.832;60.658;2023-08-12T11:03:26;98515.00;;;26.32;25.32
42727;BME280;28372;56.832;60.658;2023-08-12T11:06:03;98513.31;;;26.25;25.53
42727;BME280;28372;56.832;60.658;2023-08-12T11:08:30;98505.75;;;26.16;24.88
42727;BME280;28372;56.832;60.658;2023-08-12T11:11:01;98516.56;;;26.33;25.99
42727;BME280;28372;56.832;60.658;2023-08-12T11:13:29;98503.81;;;25.95;25.05
42727;BME280;28372;56.832;60.658;2023-08-12T11:16:09;98509.13;;;26.11;25.36
42727;BME280;28372;56.832;60.658;2023-08-12T11:18:37;98500.72;;;25.83;25.74
42727;BME280;28372;56.832;60.658;2023-08-12T11:21:05;98517.66;;;25.76;25.34
42727;BME280;28372;56.832;60.658;2023-08-12T11:23:33;98504.03;;;25.60;25.97
42727;BME280;28372;56.832;60.658;2023-08-12T11:26:02;98513.59;;;25.59;25.30
42727;BME280;28372;56.832;60.658;2023-08-12T11:28:30;98506.63;;;25.54;25.17
42727;BME280;28372;56.832;60.658;2023-08-12T11:30:58;98498.94;;;25.49;25.93
42727;BME280;28372;56.832;60.658;2023-08-12T11:33:26;98504.25;;;25.34;25.29
42727;BME280;28372;56.832;60.658;2023-08-12T11:35:54;98504.50;;;25.27;25.92
42727;BME280;28372;56.832;60.658;2023-08-12T11:38:22;98502.13;;;25.16;26.36
42727;BME280;28372;56.832;60.658;2023-08-12T11:40:50;98503.88;;;25.23;26.23
42727;BME280;28372;56.832;60.658;2023-08-12T11:43:21;98504.97;;;25.25;26.54
42727;BME280;28372;56.832;60.658;2023-08-12T11:45:49;98500.91;;;25.17;26.16
42727;BME280;28372;56.832;60.658;2023-08-12T11:48:16;98498.63;;;25.16;26.70
42727;BME280;28372;56.832;60.658;2023-08-12T11:50:44;98498.28;;;25.13;26.59
42727;BME280;28372;56.832;60.658;2023-08-12T11:53:12;98499.97;;;25.11;26.90
42727;BME280;28372;56.832;60.658;2023-08-12T11:55:40;98492.91;;;25.19;27.47
42727;BME280;28372;56.832;60.658;2023-08-12T11:58:08;98494.28;;;25.14;26.82
42727;BME280;28372;56.832;60.658;2023-08-12T12:00:37;98494.81;;;25.22;27.24
42727;BME280;28372;56.832;60.658;2023-08-12T12:03:05;98485.81;;;25.09;27.06
42727;BME280;28372;56.832;60.658;2023-08-12T12:05:34;98500.19;;;24.94;26.43
42727;BME280;28372;56.832;60.658;2023-08-12T12:08:02;98494.31;;;24.92;27.25
42727;BME280;28372;56.832;60.658;2023-08-12T12:10:33;98499.53;;;24.90;27.29
42727;BME280;28372;56.832;60.658;2023-08-12T12:13:03;98509.78;;;25.03;27.79
42727;BME280;28372;56.832;60.658;2023-08-12T12:15:38;98516.78;;;25.17;27.10
42727;BME280;28372;56.832;60.658;2023-08-12T12:18:12;98513.47;;;25.09;28.31
42727;BME280;28372;56.832;60.658;2023-08-12T12:20:59;98519.56;;;25.26;26.74
42727;BME280;28372;56.832;60.658;2023-08-12T12:23:28;98520.78;;;24.93;26.87
42727;BME280;28372;56.832;60.658;2023-08-12T12:25:58;98515.97;;;24.85;26.73
42727;BME280;28372;56.832;60.658;2023-08-12T12:28:27;98502.84;;;24.76;26.27
42727;BME280;28372;56.832;60.658;2023-08-12T12:30:55;98519.09;;;24.74;26.91
42727;BME280;28372;56.832;60.658;2023-08-12T12:33:22;98505.53;;;24.67;26.71
42727;BME280;28372;56.832;60.658;2023-08-12T12:35:50;98517.50;;;24.63;27.38
42727;BME280;28372;56.832;60.658;2023-08-12T12:38:26;98512.28;;;24.66;28.09
42727;BME280;28372;56.832;60.658;2023-08-12T12:40:54;98500.13;;;24.63;27.71
42727;BME280;28372;56.832;60.658;2023-08-12T12:43:22;98503.97;;;24.66;27.38
42727;BME280;28372;56.832;60.658;2023-08-12T12:45:49;98506.97;;;24.58;27.53
42727;BME280;28372;56.832;60.658;2023-08-12T12:48:17;98511.53;;;24.52;27.19
42727;BME280;28372;56.832;60.658;2023-08-12T12:50:45;98509.78;;;24.45;26.39
42727;BME280;28372;56.832;60.658;2023-08-12T12:53:13;98508.59;;;24.46;27.02
42727;BME280;28372;56.832;60.658;2023-08-12T12:55:41;98512.09;;;24.47;27.58
42727;BME280;28372;56.832;60.658;2023-08-12T12:58:08;98513.56;;;24.39;27.29
42727;BME280;28372;56.832;60.658;2023-08-12T13:00:38;98511.25;;;24.37;27.89